Time;durP1;ratioP1;P1;durP2;ratioP2;P2;SDS_P1;SDS_P2;PMS_P1;PMS_P2;Temp;Humidity;BMP_temperature;BMP_pressure;BME280_temperature;BME280_humidity;BME280_pressure;Samples;Min_cycle;Max_cycle;Signal;HPM_P1;HPM_P2
2021/06/10 00:01:38;;;;;;;3.30;2.83;;;21.80;59.20;;;;;;5115161;28;20487;-77
2021/06/10 00:04:05;;;;;;;3.30;3.00;;;21.70;59.20;;;;;;5114902;28;20485;-77
2021/06/10 00:06:31;;;;;;;3.60;3.30;;;21.60;59.60;;;;;;5114523;28;20500;-77
2021/06/10 00:08:57;;;;;;;3.73;2.93;;;21.60;59.50;;;;;;5114213;28;20441;-77
2021/06/10 00:11:23;;;;;;;3.73;3.10;;;21.60;59.50;;;;;;5115155;28;20446;-77
2021/06/10 00:13:50;;;;;;;3.40;2.93;;;21.50;59.70;;;;;;5114682;28;20454;-77
2021/06/10 00:16:16;;;;;;;3.43;3.13;;;21.50;59.90;;;;;;5114855;28;20431;-78
2021/06/10 00:18:46;;;;;;;3.70;3.40;;;21.50;59.70;;;;;;5114798;28;20439;-77
2021/06/10 00:21:12;;;;;;;3.57;3.07;;;21.40;59.80;;;;;;5114956;28;20450;-76
2021/06/10 00:23:38;;;;;;;3.80;3.50;;;21.40;60.40;;;;;;5114977;28;20459;-77
2021/06/10 00:26:05;;;;;;;7.73;3.17;;;21.30;60.30;;;;;;5114868;28;20454;-77
2021/06/10 00:28:31;;;;;;;4.13;3.50;;;21.30;60.60;;;;;;5114861;28;20845;-77
2021/06/10 00:30:59;;;;;;;3.10;2.90;;;21.30;60.90;;;;;;5114732;28;20447;-77
2021/06/10 00:33:25;;;;;;;3.07;2.77;;;21.20;60.80;;;;;;5114358;28;21010;-77
2021/06/10 00:35:53;;;;;;;6.03;3.13;;;21.20;61.10;;;;;;5114893;28;20567;-77
2021/06/10 00:38:19;;;;;;;2.70;2.50;;;21.10;61.50;;;;;;5114862;28;20454;-77
2021/06/10 00:40:46;;;;;;;3.00;2.70;;;21.10;61.60;;;;;;5114653;28;20447;-77
2021/06/10 00:43:12;;;;;;;2.90;2.70;;;21.10;62.40;;;;;;5114861;28;20467;-77
2021/06/10 00:45:38;;;;;;;3.43;2.80;;;21.10;62.60;;;;;;5114588;28;20535;-77
2021/06/10 00:48:05;;;;;;;4.30;3.77;;;21.00;62.70;;;;;;5114663;28;20806;-77
2021/06/10 00:50:35;;;;;;;3.10;2.73;;;20.90;62.60;;;;;;5114588;28;20936;-77
2021/06/10 00:53:03;;;;;;;3.47;3.17;;;20.90;62.60;;;;;;5114503;28;20471;-77
2021/06/10 00:55:30;;;;;;;3.13;2.93;;;20.90;63.10;;;;;;5114431;28;20447;-77
2021/06/10 00:57:56;;;;;;;3.20;2.90;;;20.80;63.30;;;;;;5114482;28;20454;-77
2021/06/10 01:00:23;;;;;;;5.23;3.00;;;20.80;63.60;;;;;;5114509;28;20439;-77
2021/06/10 01:02:49;;;;;;;7.33;3.37;;;20.80;63.70;;;;;;5113875;28;20470;-77
2021/06/10 01:05:16;;;;;;;3.03;2.67;;;20.70;63.70;;;;;;5114489;28;20485;-77
2021/06/10 01:07:52;;;;;;;3.27;2.97;;;20.70;63.80;;;;;;5114147;28;20455;-77
2021/06/10 01:10:27;;;;;;;3.17;2.87;;;20.60;63.70;;;;;;5113863;28;20927;-77
2021/06/10 01:12:58;;;;;;;3.57;2.40;;;20.60;63.90;;;;;;5114071;28;20462;-77
2021/06/10 01:15:28;;;;;;;4.60;2.97;;;20.60;63.80;;;;;;5114288;28;20427;-77
2021/06/10 01:17:55;;;;;;;2.50;2.30;;;20.50;63.60;;;;;;5114509;28;20471;-77
2021/06/10 01:20:26;;;;;;;3.80;2.57;;;20.60;64.00;;;;;;5118159;28;20451;-77
2021/06/10 01:23:05;;;;;;;2.43;2.33;;;20.50;63.70;;;;;;5117913;28;20470;-77
2021/06/10 01:25:50;;;;;;;3.97;3.00;;;20.40;63.60;;;;;;5117699;28;20474;-77
2021/06/10 01:28:23;;;;;;;3.23;2.93;;;20.40;63.70;;;;;;5117438;28;20431;-77
2021/06/10 01:30:53;;;;;;;3.00;2.80;;;20.40;64.20;;;;;;5117457;28;20435;-76
2021/06/10 01:33:23;;;;;;;4.90;3.87;;;20.30;63.90;;;;;;5117492;28;20459;-77
2021/06/10 01:35:54;;;;;;;8.53;5.00;;;20.30;64.00;;;;;;5117279;28;20462;-77
2021/06/10 01:38:23;;;;;;;9.10;5.03;;;20.30;63.60;;;;;;5117197;28;20419;-76
2021/06/10 01:40:50;;;;;;;10.63;4.93;;;20.20;63.40;;;;;;5117144;28;20447;-76
2021/06/10 01:43:18;;;;;;;12.53;5.77;;;20.20;63.70;;;;;;5117034;28;20462;-77
2021/06/10 01:45:49;;;;;;;12.03;6.17;;;20.10;63.40;;;;;;5116974;28;20490;-77
2021/06/10 01:48:17;;;;;;;7.13;4.60;;;20.10;63.50;;;;;;5117027;28;20435;-76
2021/06/10 01:50:43;;;;;;;7.00;3.77;;;20.10;64.80;;;;;;5116673;28;20439;-76
2021/06/10 01:53:14;;;;;;;4.70;4.03;;;20.10;64.00;;;;;;5116620;28;20483;-76
2021/06/10 01:55:41;;;;;;;6.80;4.07;;;20.00;64.00;;;;;;5116607;28;20423;-76
2021/06/10 01:58:08;;;;;;;3.73;3.13;;;20.00;64.40;;;;;;5116808;28;20442;-76
2021/06/10 02:00:35;;;;;;;4.70;3.63;;;19.90;64.50;;;;;;5116725;28;20461;-77
2021/06/10 02:03:04;;;;;;;6.23;3.70;;;19.90;64.50;;;;;;5117060;28;20478;-78
2021/06/10 02:05:31;;;;;;;5.60;3.83;;;19.90;64.90;;;;;;5116566;28;20479;-77
2021/06/10 02:07:57;;;;;;;7.93;3.23;;;19.80;65.00;;;;;;5116760;28;20451;-77
2021/06/10 02:10:26;;;;;;;5.57;3.90;;;19.80;64.90;;;;;;5116630;28;20480;-77
2021/06/10 02:12:53;;;;;;;5.60;3.70;;;19.80;65.00;;;;;;5116711;28;20471;-78
2021/06/10 02:15:20;;;;;;;6.63;3.27;;;19.70;65.00;;;;;;5116752;28;20465;-77
2021/06/10 02:17:47;;;;;;;5.73;2.83;;;19.70;65.00;;;;;;5116819;28;20529;-77
2021/06/10 02:20:18;;;;;;;3.50;2.63;;;19.70;65.40;;;;;;5116658;28;20944;-78
2021/06/10 02:22:44;;;;;;;5.70;2.83;;;19.60;65.80;;;;;;5116278;28;20919;-77
2021/06/10 02:25:11;;;;;;;6.60;2.47;;;19.60;66.00;;;;;;5116580;28;20479;-76
2021/06/10 02:27:38;;;;;;;5.10;2.57;;;19.60;66.00;;;;;;5116366;28;20454;-77
2021/06/10 02:30:05;;;;;;;5.00;2.97;;;19.50;66.00;;;;;;5115752;28;20454;-76
2021/06/10 02:32:32;;;;;;;5.37;2.63;;;19.50;66.40;;;;;;5116474;28;20447;-78
2021/06/10 02:34:58;;;;;;;3.03;2.63;;;19.40;66.50;;;;;;5116648;28;20447;-76
2021/06/10 02:37:27;;;;;;;4.60;2.37;;;19.40;66.50;;;;;;5116090;28;20489;-76
2021/06/10 02:39:54;;;;;;;4.10;2.50;;;19.40;66.80;;;;;;5115804;28;20443;-76
2021/06/10 02:42:21;;;;;;;2.13;2.03;;;19.40;66.80;;;;;;5116283;28;20446;-77
2021/06/10 02:44:52;;;;;;;6.17;2.60;;;19.30;66.80;;;;;;5115795;28;20856;-76
2021/06/10 02:47:19;;;;;;;3.50;2.50;;;19.30;66.80;;;;;;5115999;28;20484;-77
2021/06/10 02:49:48;;;;;;;4.50;3.53;;;19.30;67.20;;;;;;5115995;28;20816;-77
2021/06/10 02:52:16;;;;;;;7.13;2.73;;;19.30;67.30;;;;;;5115839;28;20451;-76
2021/06/10 02:54:45;;;;;;;4.83;3.17;;;19.20;67.40;;;;;;5116968;28;20466;-78
2021/06/10 02:57:12;;;;;;;4.00;2.47;;;19.20;67.40;;;;;;5115689;28;20450;-78
2021/06/10 02:59:42;;;;;;;6.63;2.80;;;19.20;67.40;;;;;;5115992;28;20454;-78
2021/06/10 03:02:09;;;;;;;7.37;2.93;;;19.20;67.30;;;;;;5115827;28;20450;-78
2021/06/10 03:04:36;;;;;;;5.30;2.57;;;19.10;67.20;;;;;;5116452;28;20960;-78
2021/06/10 03:07:02;;;;;;;7.77;2.73;;;19.10;67.30;;;;;;5115684;28;20952;-78
2021/06/10 03:09:31;;;;;;;6.17;3.40;;;19.10;67.30;;;;;;5115803;28;20903;-78
2021/06/10 03:11:59;;;;;;;7.93;2.80;;;19.00;67.30;;;;;;5116179;28;20439;-76
2021/06/10 03:14:26;;;;;;;9.23;3.63;;;19.00;67.30;;;;;;5115546;28;20515;-76
2021/06/10 03:16:52;;;;;;;9.17;3.37;;;19.00;67.40;;;;;;5115649;28;20447;-78
2021/06/10 03:19:19;;;;;;;7.43;3.10;;;19.00;67.70;;;;;;5115920;28;20450;-78
2021/06/10 03:21:45;;;;;;;4.83;2.90;;;19.00;67.60;;;;;;5115119;28;20480;-76
2021/06/10 03:24:13;;;;;;;6.90;3.30;;;19.00;67.90;;;;;;5115027;28;20490;-77
2021/06/10 03:26:39;;;;;;;6.97;3.43;;;18.90;67.60;;;;;;5116232;28;20474;-77
2021/06/10 03:29:07;;;;;;;11.00;3.23;;;18.90;67.60;;;;;;5115337;28;20948;-76
2021/06/10 03:31:35;;;;;;;11.90;4.10;;;18.90;67.50;;;;;;5115258;28;20474;-76
2021/06/10 03:34:02;;;;;;;7.37;4.00;;;18.90;68.00;;;;;;5115331;28;20516;-77
2021/06/10 03:36:29;;;;;;;8.90;3.43;;;18.90;68.30;;;;;;5115334;28;20451;-76
2021/06/10 03:38:57;;;;;;;5.87;3.00;;;18.80;68.00;;;;;;5115500;28;20500;-77
2021/06/10 03:41:25;;;;;;;15.30;3.60;;;18.80;68.10;;;;;;5117657;28;20476;-76
2021/06/10 03:43:53;;;;;;;7.27;3.80;;;18.80;68.30;;;;;;5119218;28;20466;-77
2021/06/10 03:46:21;;;;;;;5.40;3.13;;;18.70;68.20;;;;;;5116126;28;20439;-78
2021/06/10 03:48:47;;;;;;;9.90;3.83;;;18.70;68.40;;;;;;5116072;28;20469;-77
2021/06/10 03:51:15;;;;;;;5.90;3.03;;;18.70;68.70;;;;;;5115260;28;20905;-76
2021/06/10 03:53:43;;;;;;;5.67;2.57;;;18.70;68.70;;;;;;5119882;28;20475;-76
2021/06/10 03:56:09;;;;;;;8.20;2.97;;;18.70;68.80;;;;;;5126881;28;20465;-77
2021/06/10 03:58:36;;;;;;;13.33;3.40;;;18.60;69.00;;;;;;5127341;28;20438;-76
2021/06/10 04:01:02;;;;;;;9.60;3.27;;;18.70;69.20;;;;;;5126692;28;20443;-77
2021/06/10 04:03:30;;;;;;;5.73;2.97;;;18.70;69.50;;;;;;5128527;28;20470;-77
2021/06/10 04:05:57;;;;;;;5.53;2.57;;;18.70;69.70;;;;;;5128761;28;20480;-77
2021/06/10 04:08:23;;;;;;;6.30;3.10;;;18.70;69.70;;;;;;5129092;28;20443;-78
2021/06/10 04:10:49;;;;;;;6.87;3.50;;;18.60;69.70;;;;;;5128648;28;20435;-77
2021/06/10 04:13:16;;;;;;;8.20;3.00;;;18.70;70.00;;;;;;5119001;28;20497;-78
2021/06/10 04:15:42;;;;;;;7.20;3.33;;;18.60;69.80;;;;;;5121625;28;20439;-78
2021/06/10 04:18:09;;;;;;;9.30;3.00;;;18.60;70.00;;;;;;5118003;28;20465;-78
2021/06/10 04:20:36;;;;;;;5.43;3.07;;;18.60;70.10;;;;;;5118039;28;20495;-78
2021/06/10 04:23:02;;;;;;;3.60;2.87;;;18.60;70.20;;;;;;5116145;28;20466;-78
2021/06/10 04:25:29;;;;;;;5.47;3.47;;;18.60;70.40;;;;;;5115921;28;20485;-77
2021/06/10 04:27:55;;;;;;;5.03;3.10;;;18.70;70.40;;;;;;5115292;28;20815;-78
2021/06/10 04:30:22;;;;;;;6.07;2.93;;;18.70;70.60;;;;;;5115096;28;20948;-78
2021/06/10 04:32:48;;;;;;;7.53;3.40;;;18.70;70.60;;;;;;5114799;28;20462;-78
2021/06/10 04:35:15;;;;;;;5.93;3.60;;;18.70;70.80;;;;;;5114524;28;20473;-77
2021/06/10 04:37:42;;;;;;;6.37;3.33;;;18.70;71.10;;;;;;5114517;28;20469;-77
2021/06/10 04:40:10;;;;;;;7.63;2.80;;;18.70;71.30;;;;;;5114773;28;20442;-77
2021/06/10 04:42:36;;;;;;;9.37;3.10;;;18.70;71.50;;;;;;5114685;28;20496;-77
2021/06/10 04:45:03;;;;;;;9.60;3.90;;;18.70;71.70;;;;;;5114454;28;20479;-78
2021/06/10 04:47:29;;;;;;;10.63;3.90;;;18.80;71.90;;;;;;5114296;28;20438;-77
2021/06/10 04:49:56;;;;;;;13.67;4.30;;;18.80;72.10;;;;;;5114459;28;20451;-78
2021/06/10 04:52:22;;;;;;;12.37;5.20;;;18.90;72.30;;;;;;5114413;28;20442;-77
2021/06/10 04:54:49;;;;;;;13.60;4.87;;;18.80;72.30;;;;;;5117979;28;20549;-78
2021/06/10 04:57:16;;;;;;;9.93;4.87;;;18.90;72.80;;;;;;5118352;28;20874;-77
2021/06/10 04:59:42;;;;;;;14.03;4.53;;;18.90;73.00;;;;;;5118576;28;20454;-78
2021/06/10 05:02:08;;;;;;;11.27;4.73;;;18.90;73.30;;;;;;5119014;28;20446;-77
2021/06/10 05:04:35;;;;;;;15.13;5.80;;;18.90;73.90;;;;;;5118940;28;20547;-76
2021/06/10 05:07:01;;;;;;;9.70;5.57;;;19.00;73.90;;;;;;5118262;28;20450;-77
2021/06/10 05:09:27;;;;;;;18.17;6.93;;;19.00;73.80;;;;;;5118203;28;20445;-77
2021/06/10 05:11:55;;;;;;;17.80;5.90;;;19.10;73.90;;;;;;5119104;28;20449;-78
2021/06/10 05:14:21;;;;;;;13.87;5.20;;;19.10;73.70;;;;;;5119199;28;20462;-78
2021/06/10 05:16:48;;;;;;;18.63;5.40;;;19.20;73.70;;;;;;5119193;28;20451;-76
2021/06/10 05:19:15;;;;;;;15.67;5.30;;;19.30;73.80;;;;;;5117779;28;20446;-76
2021/06/10 05:21:41;;;;;;;10.27;5.40;;;19.30;72.60;;;;;;5117721;28;20442;-77
2021/06/10 05:24:09;;;;;;;19.63;6.00;;;19.40;73.00;;;;;;5117807;28;20840;-79
2021/06/10 05:26:35;;;;;;;12.60;5.20;;;19.50;73.50;;;;;;5117606;28;20470;-76
2021/06/10 05:29:03;;;;;;;8.73;5.67;;;19.60;73.20;;;;;;5117346;28;20816;-77
2021/06/10 05:31:29;;;;;;;13.67;5.90;;;19.70;72.90;;;;;;5117439;28;20434;-77
2021/06/10 05:33:55;;;;;;;15.97;5.00;;;19.80;72.20;;;;;;5117394;28;20463;-76
2021/06/10 05:36:21;;;;;;;21.30;5.53;;;19.90;70.90;;;;;;5117310;28;20855;-77
2021/06/10 05:38:48;;;;;;;13.17;5.80;;;19.90;69.70;;;;;;5117177;28;20446;-76
2021/06/10 05:41:14;;;;;;;13.37;4.90;;;20.00;69.60;;;;;;5117159;28;20447;-76
2021/06/10 05:43:40;;;;;;;14.33;5.50;;;20.10;69.40;;;;;;5117277;28;20463;-76
2021/06/10 05:46:07;;;;;;;16.03;5.00;;;20.10;69.70;;;;;;5116874;28;20484;-76
2021/06/10 05:48:34;;;;;;;12.33;5.03;;;20.20;68.70;;;;;;5117087;28;20449;-76
2021/06/10 05:51:00;;;;;;;11.20;5.30;;;20.40;68.40;;;;;;5116940;28;20431;-78
2021/06/10 05:53:26;;;;;;;20.07;5.10;;;20.40;67.70;;;;;;5118816;28;20485;-78
2021/06/10 05:55:53;;;;;;;20.23;5.23;;;20.40;66.20;;;;;;5121091;28;20443;-79
2021/06/10 05:58:19;;;;;;;14.70;5.47;;;20.50;66.10;;;;;;5120926;28;20534;-78
2021/06/10 06:00:45;;;;;;;15.17;5.00;;;20.50;64.80;;;;;;5121275;28;20442;-78
2021/06/10 06:03:13;;;;;;;10.80;4.73;;;20.60;65.80;;;;;;5121440;28;20488;-78
2021/06/10 06:05:39;;;;;;;10.23;3.50;;;20.70;65.40;;;;;;5121738;28;20482;-79
2021/06/10 06:08:06;;;;;;;12.30;4.23;;;20.80;64.30;;;;;;5124468;28;20954;-79
2021/06/10 06:10:33;;;;;;;12.37;4.70;;;21.00;64.40;;;;;;5122154;28;20947;-79
2021/06/10 06:13:02;;;;;;;15.73;5.10;;;21.10;64.20;;;;;;5121232;28;20489;-78
2021/06/10 06:15:28;;;;;;;20.10;5.73;;;21.20;62.80;;;;;;5119181;28;20447;-78
2021/06/10 06:17:54;;;;;;;15.33;4.93;;;21.30;62.90;;;;;;5118614;28;20451;-78
2021/06/10 06:20:23;;;;;;;11.47;4.10;;;21.40;62.10;;;;;;5120299;28;20447;-80
2021/06/10 06:22:49;;;;;;;15.57;5.00;;;21.60;63.60;;;;;;5124828;28;20515;-80
2021/06/10 06:25:17;;;;;;;11.93;4.43;;;21.70;64.70;;;;;;5124617;28;20827;-80
2021/06/10 06:27:43;;;;;;;10.93;4.27;;;21.80;63.70;;;;;;5123917;28;20439;-80
2021/06/10 06:30:12;;;;;;;11.13;3.90;;;21.90;62.70;;;;;;5123121;28;20450;-81
2021/06/10 06:32:38;;;;;;;11.50;4.30;;;22.00;60.70;;;;;;5126104;28;20450;-81
2021/06/10 06:35:06;;;;;;;11.10;3.83;;;22.20;60.40;;;;;;5120999;28;20412;-81
2021/06/10 06:37:34;;;;;;;11.60;4.30;;;22.30;58.20;;;;;;5119634;28;20478;-81
2021/06/10 06:40:04;;;;;;;16.83;4.27;;;22.40;58.20;;;;;;5121108;28;20443;-81
2021/06/10 06:42:32;;;;;;;12.90;3.00;;;22.50;57.90;;;;;;5121083;28;20431;-80
2021/06/10 06:44:58;;;;;;;7.53;2.70;;;22.60;57.80;;;;;;5121043;28;20522;-80
2021/06/10 06:47:24;;;;;;;4.90;3.33;;;22.80;58.40;;;;;;5120382;28;20449;-81
2021/06/10 06:49:51;;;;;;;2.93;1.77;;;23.00;57.30;;;;;;5120075;28;20443;-80
2021/06/10 06:52:17;;;;;;;10.63;2.13;;;23.20;52.70;;;;;;5119146;28;20439;-81
2021/06/10 06:54:44;;;;;;;8.90;2.37;;;23.40;50.70;;;;;;5118438;28;20462;-80
2021/06/10 06:57:10;;;;;;;4.60;2.30;;;23.60;50.20;;;;;;5120072;28;20458;-81
2021/06/10 06:59:37;;;;;;;9.50;3.27;;;23.80;51.00;;;;;;5120470;28;20427;-80
2021/06/10 07:02:03;;;;;;;17.57;3.97;;;23.90;52.70;;;;;;5119492;28;20557;-80
2021/06/10 07:04:30;;;;;;;9.00;2.60;;;24.10;53.00;;;;;;5119851;28;20459;-81
2021/06/10 07:06:56;;;;;;;11.43;2.67;;;24.30;52.10;;;;;;5119786;28;20601;-81
2021/06/10 07:09:22;;;;;;;3.00;2.13;;;24.50;50.70;;;;;;5118635;28;20419;-79
2021/06/10 07:12:16;;;;;;;6.07;2.63;;;24.70;48.90;;;;;;5117694;28;20434;-78
2021/06/10 07:14:43;;;;;;;5.10;2.20;;;24.80;45.80;;;;;;5118367;28;20500;-78
2021/06/10 07:17:10;;;;;;;6.60;2.40;;;24.90;45.40;;;;;;5118086;28;20428;-79
2021/06/10 07:19:37;;;;;;;10.20;2.80;;;25.00;46.80;;;;;;5118063;28;20461;-78
2021/06/10 07:22:03;;;;;;;3.10;1.90;;;25.20;47.80;;;;;;5117368;28;20896;-79
2021/06/10 07:24:30;;;;;;;4.83;2.20;;;25.40;46.60;;;;;;5117527;28;20471;-79
2021/06/10 07:26:57;;;;;;;2.23;1.40;;;25.60;45.80;;;;;;5117537;28;20437;-79
2021/06/10 07:29:23;;;;;;;3.40;1.50;;;25.90;46.40;;;;;;5117941;28;20430;-78
2021/06/10 07:31:50;;;;;;;5.23;1.73;;;26.10;46.10;;;;;;5123074;28;20423;-78
2021/06/10 07:34:16;;;;;;;2.53;1.57;;;26.40;44.50;;;;;;5116667;28;21013;-76
2021/06/10 07:36:42;;;;;;;2.67;1.77;;;26.60;43.70;;;;;;5116328;28;20518;-76
2021/06/10 07:39:10;;;;;;;5.47;1.63;;;26.70;42.90;;;;;;5116327;28;20450;-76
2021/06/10 07:41:37;;;;;;;5.03;2.30;;;27.00;42.40;;;;;;5115528;28;20817;-77
2021/06/10 07:44:05;;;;;;;3.07;2.00;;;27.10;41.00;;;;;;5115612;28;20463;-76
2021/06/10 07:46:32;;;;;;;3.23;2.10;;;27.20;40.40;;;;;;5115751;28;20968;-77
2021/06/10 07:48:58;;;;;;;7.97;2.23;;;27.30;40.50;;;;;;5115755;28;20454;-76
2021/06/10 07:51:25;;;;;;;3.83;2.30;;;27.50;40.80;;;;;;5115905;28;20423;-76
2021/06/10 07:53:51;;;;;;;4.10;2.30;;;27.50;41.20;;;;;;5115513;28;20483;-76
2021/06/10 07:56:17;;;;;;;3.70;2.00;;;27.50;41.20;;;;;;5115969;28;20454;-76
2021/06/10 07:58:43;;;;;;;3.87;2.60;;;27.40;43.30;;;;;;5116478;28;20451;-77
2021/06/10 08:01:12;;;;;;;4.80;2.07;;;27.30;41.70;;;;;;5116010;28;20447;-76
2021/06/10 08:03:38;;;;;;;4.43;2.00;;;27.30;42.80;;;;;;5115789;28;20992;-76
2021/06/10 08:06:06;;;;;;;4.93;1.87;;;27.40;43.60;;;;;;5116019;28;20462;-76
2021/06/10 08:08:32;;;;;;;3.37;2.17;;;27.20;41.50;;;;;;5116029;28;20478;-75
2021/06/10 08:11:03;;;;;;;3.93;2.03;;;27.10;41.20;;;;;;5115643;28;20488;-78
2021/06/10 08:13:29;;;;;;;5.67;2.60;;;27.20;43.10;;;;;;5116099;28;20467;-78
2021/06/10 08:15:56;;;;;;;2.47;1.47;;;27.30;42.60;;;;;;5115730;28;20893;-76
2021/06/10 08:18:23;;;;;;;2.47;1.93;;;27.60;42.10;;;;;;5115788;28;20438;-76
2021/06/10 08:20:49;;;;;;;3.63;1.80;;;27.80;42.50;;;;;;5115758;28;20427;-78
2021/06/10 08:23:18;;;;;;;4.67;2.17;;;28.10;42.60;;;;;;5116952;28;20481;-78
2021/06/10 08:25:44;;;;;;;3.13;1.77;;;28.20;39.90;;;;;;5116957;28;20482;-78
2021/06/10 08:28:12;;;;;;;3.50;1.80;;;28.10;39.50;;;;;;5116595;28;20522;-78
2021/06/10 08:30:39;;;;;;;2.93;1.90;;;28.10;42.00;;;;;;5116478;28;20435;-77
2021/06/10 08:33:06;;;;;;;3.10;2.20;;;28.20;41.80;;;;;;5115290;28;20988;-76
2021/06/10 08:35:34;;;;;;;3.90;2.50;;;28.30;40.60;;;;;;5116941;28;20427;-78
2021/06/10 08:38:02;;;;;;;5.63;2.80;;;28.10;40.00;;;;;;5117502;28;20431;-78
2021/06/10 08:40:29;;;;;;;6.00;1.97;;;28.00;40.10;;;;;;5117213;28;20431;-78
2021/06/10 08:42:55;;;;;;;3.10;2.50;;;28.00;41.10;;;;;;5117126;28;20478;-78
2021/06/10 08:45:28;;;;;;;9.67;3.80;;;28.10;42.10;;;;;;5117462;28;20463;-78
2021/06/10 08:47:55;;;;;;;3.53;2.40;;;28.20;40.70;;;;;;5115835;28;20758;-78
2021/06/10 08:50:22;;;;;;;10.53;3.03;;;28.40;39.50;;;;;;5115361;28;20450;-76
2021/06/10 08:52:51;;;;;;;5.20;2.40;;;28.50;41.60;;;;;;5115781;28;20543;-76
2021/06/10 08:55:18;;;;;;;3.57;2.43;;;28.70;41.30;;;;;;5115141;28;20442;-75
2021/06/10 08:57:45;;;;;;;1.83;1.70;;;29.00;42.70;;;;;;5114206;28;20535;-75
2021/06/10 09:00:12;;;;;;;4.20;1.80;;;29.30;43.20;;;;;;5114055;28;20478;-76
2021/06/10 09:02:39;;;;;;;4.17;2.10;;;29.60;41.90;;;;;;5113598;28;20908;-75
2021/06/10 09:05:06;;;;;;;5.40;2.63;;;29.90;41.60;;;;;;5113781;28;20478;-76
2021/06/10 09:07:34;;;;;;;3.83;2.90;;;30.00;39.60;;;;;;5116077;28;20450;-79
2021/06/10 09:10:03;;;;;;;10.23;2.93;;;30.00;39.50;;;;;;5115871;28;20423;-79
2021/06/10 09:12:37;;;;;;;9.00;3.57;;;30.10;38.10;;;;;;5115824;28;20832;-76
2021/06/10 09:15:09;;;;;;;4.77;2.50;;;30.30;36.90;;;;;;5116388;28;20911;-77
2021/06/10 09:17:39;;;;;;;4.40;2.90;;;30.50;36.50;;;;;;5115248;28;20431;-79
2021/06/10 09:20:28;;;;;;;9.80;3.57;;;30.80;35.90;;;;;;5114891;28;20438;-78
2021/06/10 09:23:13;;;;;;;5.50;3.20;;;30.80;35.60;;;;;;5116082;28;20819;-77
2021/06/10 09:25:42;;;;;;;2.50;2.30;;;30.70;36.60;;;;;;5114466;28;20458;-79
2021/06/10 09:28:09;;;;;;;6.00;2.93;;;30.70;35.90;;;;;;5118246;27;20427;-76
2021/06/10 09:30:38;;;;;;;4.83;2.83;;;30.90;37.20;;;;;;5113662;28;20428;-75
2021/06/10 09:33:10;;;;;;;4.40;3.00;;;31.10;36.30;;;;;;5113603;28;20520;-76
2021/06/10 09:35:38;;;;;;;2.80;2.23;;;31.20;34.10;;;;;;5119163;28;20423;-78
2021/06/10 09:38:06;;;;;;;4.57;2.07;;;31.50;33.90;;;;;;5115900;28;20423;-78
2021/06/10 09:40:35;;;;;;;6.40;3.17;;;31.90;34.60;;;;;;5118664;28;20423;-80
2021/06/10 09:43:04;;;;;;;5.70;3.23;;;32.30;32.60;;;;;;5120559;28;21002;-79
2021/06/10 09:45:33;;;;;;;4.47;3.37;;;32.50;31.90;;;;;;5120668;28;20466;-79
2021/06/10 09:48:01;;;;;;;5.33;3.17;;;32.40;31.90;;;;;;5120860;28;20476;-78
2021/06/10 09:50:30;;;;;;;2.60;2.40;;;31.80;31.30;;;;;;5120830;28;20423;-78
2021/06/10 09:52:59;;;;;;;9.30;2.50;;;31.30;35.00;;;;;;5120638;28;20610;-79
2021/06/10 09:55:31;;;;;;;4.77;3.00;;;31.20;36.40;;;;;;5120126;28;20852;-78
2021/06/10 09:58:06;;;;;;;6.00;2.93;;;31.30;37.00;;;;;;5119613;28;20423;-78
2021/06/10 10:00:33;;;;;;;5.73;2.80;;;31.40;33.90;;;;;;5119009;28;20430;-76
2021/06/10 10:02:59;;;;;;;3.90;2.13;;;31.40;35.50;;;;;;5117707;28;20466;-77
2021/06/10 10:05:25;;;;;;;5.33;2.10;;;31.70;35.70;;;;;;5118817;28;20901;-78
2021/06/10 10:07:53;;;;;;;6.43;2.70;;;32.00;35.30;;;;;;5118866;28;20499;-78
2021/06/10 10:10:20;;;;;;;3.90;2.87;;;32.10;34.50;;;;;;5117474;28;20451;-76
2021/06/10 10:12:49;;;;;;;6.20;3.03;;;32.20;34.90;;;;;;5117229;28;20821;-75
2021/06/10 10:15:17;;;;;;;4.70;3.50;;;32.40;36.10;;;;;;5116541;28;20430;-77
2021/06/10 10:17:46;;;;;;;3.60;2.80;;;32.60;34.10;;;;;;5116532;28;20423;-76
2021/06/10 10:20:15;;;;;;;4.20;2.87;;;32.80;33.40;;;;;;5118721;28;20426;-78
2021/06/10 10:22:42;;;;;;;5.27;3.50;;;33.00;33.60;;;;;;5118908;28;20525;-78
2021/06/10 10:25:09;;;;;;;4.03;3.70;;;33.00;32.90;;;;;;5116455;28;20469;-75
2021/06/10 10:27:37;;;;;;;4.13;3.83;;;33.00;32.30;;;;;;5116236;28;20422;-76
2021/06/10 10:30:04;;;;;;;3.13;2.93;;;32.80;31.40;;;;;;5116163;28;20443;-76
2021/06/10 10:32:32;;;;;;;4.00;3.60;;;32.50;33.20;;;;;;5115762;28;20447;-76
2021/06/10 10:35:26;;;;;;;3.60;3.40;;;32.30;33.20;;;;;;5116045;28;20495;-76
2021/06/10 10:37:54;;;;;;;5.27;3.20;;;31.90;33.20;;;;;;5116282;28;20439;-76
2021/06/10 10:40:21;;;;;;;4.10;3.07;;;31.70;36.20;;;;;;5115763;28;20438;-75
2021/06/10 10:42:47;;;;;;;4.00;3.23;;;31.90;36.90;;;;;;5115644;28;20435;-76
2021/06/10 10:45:20;;;;;;;5.57;3.10;;;32.20;33.00;;;;;;5115492;28;20999;-76
2021/06/10 10:47:57;;;;;;;3.43;3.00;;;32.20;35.90;;;;;;5116356;28;20454;-77
2021/06/10 10:50:37;;;;;;;6.33;2.83;;;32.30;36.60;;;;;;5117589;28;20449;-76
2021/06/10 10:53:04;;;;;;;4.97;3.93;;;32.90;34.50;;;;;;5116431;28;20489;-76
2021/06/10 10:55:31;;;;;;;4.33;4.03;;;33.20;31.70;;;;;;5116067;28;20442;-79
2021/06/10 10:58:03;;;;;;;3.60;3.30;;;33.00;31.60;;;;;;5116244;28;20431;-77
2021/06/10 11:00:57;;;;;;;3.30;3.10;;;32.60;32.30;;;;;;5116234;28;20434;-77
2021/06/10 11:03:28;;;;;;;3.80;3.30;;;32.80;32.70;;;;;;5126276;28;20478;-75
2021/06/10 11:05:56;;;;;;;3.37;3.17;;;32.60;32.00;;;;;;5115695;28;20474;-75
2021/06/10 11:08:23;;;;;;;5.47;3.43;;;32.30;33.70;;;;;;5115504;28;20431;-77
2021/06/10 11:11:01;;;;;;;4.43;3.67;;;32.70;35.70;;;;;;5115500;28;20850;-74
2021/06/10 11:13:30;;;;;;;3.93;3.67;;;33.70;32.90;;;;;;5115336;28;20466;-76
2021/06/10 11:15:58;;;;;;;5.80;3.80;;;34.30;30.20;;;;;;5115273;28;20427;-76
2021/06/10 11:18:52;;;;;;;4.50;4.10;;;35.00;31.00;;;;;;5115245;28;20452;-76
2021/06/10 11:21:53;;;;;;;4.00;3.73;;;35.60;30.00;;;;;;5115356;28;20431;-76
2021/06/10 11:24:23;;;;;;;5.27;3.67;;;35.70;28.00;;;;;;5109231;28;20621;-76
2021/06/10 11:27:00;;;;;;;5.67;3.50;;;35.10;29.10;;;;;;5114817;28;20982;-75
2021/06/10 11:29:27;;;;;;;3.93;3.60;;;34.90;28.40;;;;;;5115113;28;20844;-76
2021/06/10 11:32:25;;;;;;;4.77;3.00;;;34.70;28.50;;;;;;5115056;28;20446;-75
2021/06/10 11:34:53;;;;;;;2.87;2.67;;;34.80;29.00;;;;;;5115287;28;20859;-75
2021/06/10 11:37:23;;;;;;;3.70;3.40;;;35.00;28.40;;;;;;5114603;28;20445;-76
2021/06/10 11:39:51;;;;;;;3.73;3.20;;;35.50;26.00;;;;;;5114560;28;20931;-75
2021/06/10 11:42:17;;;;;;;3.63;3.33;;;35.80;26.20;;;;;;5114816;28;20805;-75
2021/06/10 11:44:48;;;;;;;3.93;3.57;;;35.90;29.30;;;;;;5114694;28;20459;-75
2021/06/10 11:47:25;;;;;;;3.70;3.40;;;36.20;27.30;;;;;;5114733;28;20449;-76
2021/06/10 11:49:52;;;;;;;5.30;4.00;;;36.30;27.50;;;;;;5114654;28;20875;-76
2021/06/10 11:52:18;;;;;;;4.70;4.33;;;36.50;25.90;;;;;;5114337;28;20907;-76
2021/06/10 11:55:09;;;;;;;3.93;3.63;;;36.20;26.30;;;;;;5114597;28;20856;-76
2021/06/10 11:57:35;;;;;;;4.83;4.43;;;36.00;27.40;;;;;;5114562;28;20506;-77
2021/06/10 12:00:10;;;;;;;3.80;3.50;;;36.00;27.40;;;;;;5114538;28;20814;-76
2021/06/10 12:02:37;;;;;;;4.37;3.97;;;36.30;27.50;;;;;;5114263;28;20426;-75
2021/06/10 12:05:11;;;;;;;3.87;3.40;;;36.40;28.90;;;;;;5114037;28;20437;-76
2021/06/10 12:07:38;;;;;;;3.50;3.20;;;37.00;27.10;;;;;;5114191;28;20421;-76
2021/06/10 12:10:09;;;;;;;4.10;3.30;;;37.30;26.00;;;;;;5114404;28;20426;-76
2021/06/10 12:12:41;;;;;;;4.07;3.70;;;37.40;25.10;;;;;;5113970;28;20903;-76
2021/06/10 12:15:09;;;;;;;3.63;3.40;;;37.50;25.40;;;;;;5113977;28;20896;-77
2021/06/10 12:17:52;;;;;;;4.13;3.80;;;37.10;26.00;;;;;;5114267;28;20429;-77
2021/06/10 12:20:21;;;;;;;4.47;3.60;;;36.60;27.90;;;;;;5114267;28;20768;-77
2021/06/10 12:22:48;;;;;;;3.53;3.23;;;35.80;28.20;;;;;;5114044;28;20434;-76
2021/06/10 12:25:17;;;;;;;4.07;3.73;;;35.30;29.20;;;;;;5114045;28;20466;-76
2021/06/10 12:27:45;;;;;;;4.13;3.73;;;35.10;29.40;;;;;;5114101;28;20449;-76
2021/06/10 12:30:22;;;;;;;4.10;3.63;;;35.40;28.10;;;;;;5114042;28;20453;-76
2021/06/10 12:32:49;;;;;;;4.20;3.20;;;36.10;26.50;;;;;;5113892;28;20457;-74
2021/06/10 12:35:19;;;;;;;3.50;3.20;;;36.70;25.90;;;;;;5114044;28;20438;-75
2021/06/10 12:37:50;;;;;;;3.87;3.47;;;37.10;26.30;;;;;;5113683;28;20945;-74
2021/06/10 12:40:17;;;;;;;4.80;2.97;;;37.40;25.80;;;;;;5114651;28;20431;-76
2021/06/10 12:43:09;;;;;;;6.60;3.83;;;37.60;26.60;;;;;;5113610;28;20896;-77
2021/06/10 12:45:37;;;;;;;5.10;3.70;;;37.70;25.30;;;;;;5113775;28;20474;-75
2021/06/10 12:48:19;;;;;;;6.63;3.80;;;38.00;25.30;;;;;;5113948;28;20445;-75
2021/06/10 12:50:45;;;;;;;3.13;2.93;;;38.40;24.50;;;;;;5113895;28;20426;-74
2021/06/10 12:53:16;;;;;;;4.30;3.90;;;38.60;25.50;;;;;;5113651;28;20496;-75